createdAt,value
2022-11-30T00:02:25.463Z,24.30
2022-11-30T00:07:28.323Z,17.40
2022-11-30T00:12:31.151Z,17.00
2022-11-30T00:17:33.871Z,23.90
2022-11-30T00:22:36.676Z,24.60
2022-11-30T00:27:39.453Z,18.30
2022-11-30T00:32:42.459Z,10.20
2022-11-30T00:37:45.188Z,28.20
2022-11-30T00:42:47.904Z,13.40
2022-11-30T00:47:50.888Z,12.90
2022-11-30T00:52:53.636Z,18.70
2022-11-30T00:57:56.389Z,17.80
2022-11-30T01:03:03.081Z,24.90
2022-11-30T01:08:08.279Z,21.50
2022-11-30T01:13:14.398Z,14.00
2022-11-30T01:18:17.125Z,20.30
2022-11-30T01:23:19.829Z,19.60
2022-11-30T01:28:22.562Z,19.80
2022-11-30T01:33:26.393Z,23.10
2022-11-30T01:38:35.414Z,22.90
2022-11-30T01:43:47.352Z,21.10
2022-11-30T01:48:58.505Z,19.70
2022-11-30T01:54:02.739Z,18.80
2022-11-30T01:59:05.747Z,17.90
2022-11-30T02:04:14.700Z,12.00
2022-11-30T02:09:20.469Z,23.30
2022-11-30T02:14:57.057Z,17.40
2022-11-30T02:20:30.681Z,16.10
2022-11-30T02:25:58.060Z,21.20
2022-11-30T02:31:04.580Z,10.90
2022-11-30T02:36:10.321Z,18.90
2022-11-30T02:41:13.067Z,14.30
2022-11-30T02:46:23.523Z,13.20
2022-11-30T02:51:28.863Z,15.20
2022-11-30T02:56:32.565Z,16.70
2022-11-30T03:01:35.441Z,18.50
2022-11-30T03:06:38.295Z,12.40
2022-11-30T03:11:41.052Z,15.90
2022-11-30T03:16:44.512Z,13.90
2022-11-30T03:21:47.261Z,14.90
2022-11-30T03:26:50.339Z,19.10
2022-11-30T03:31:53.353Z,17.50
2022-11-30T03:36:56.524Z,23.50
2022-11-30T03:41:59.263Z,25.40
2022-11-30T03:47:02.141Z,11.40
2022-11-30T03:52:05.147Z,19.00
2022-11-30T03:57:07.879Z,17.90
2022-11-30T04:02:10.706Z,15.20
2022-11-30T04:07:13.659Z,14.50
2022-11-30T04:12:16.684Z,18.80
2022-11-30T04:17:19.417Z,22.20
2022-11-30T04:22:22.140Z,16.80
2022-11-30T04:27:24.886Z,21.90
2022-11-30T04:32:27.614Z,22.10
2022-11-30T04:37:30.816Z,24.40
2022-11-30T04:42:33.879Z,21.00
2022-11-30T04:47:37.195Z,14.30
2022-11-30T04:52:39.917Z,13.40
2022-11-30T04:57:42.642Z,20.60
2022-11-30T05:02:52.183Z,20.20
2022-11-30T05:07:58.076Z,15.30
2022-11-30T05:13:01.175Z,19.20
2022-11-30T05:18:03.988Z,19.90
2022-11-30T05:23:06.702Z,23.20
2022-11-30T05:28:09.948Z,20.20
2022-11-30T05:33:13.081Z,21.30
2022-11-30T05:38:15.944Z,17.90
2022-11-30T05:43:18.990Z,14.70
2022-11-30T05:48:21.746Z,21.40
2022-11-30T05:53:24.467Z,19.20
2022-11-30T05:58:27.190Z,16.50
2022-11-30T06:03:31.088Z,23.40
2022-11-30T06:08:33.887Z,27.40
2022-11-30T06:13:37.375Z,22.10
2022-11-30T06:18:40.159Z,20.50
2022-11-30T06:23:42.969Z,26.50
2022-11-30T06:28:48.591Z,27.50
2022-11-30T06:33:52.008Z,30.60
2022-11-30T06:38:56.032Z,23.70
2022-11-30T06:43:58.812Z,17.10
2022-11-30T06:49:01.738Z,14.50
2022-11-30T06:54:05.014Z,22.10
2022-11-30T06:59:07.963Z,16.60
2022-11-30T07:04:10.961Z,23.70
2022-11-30T07:09:14.788Z,21.10
2022-11-30T07:14:17.590Z,17.30
2022-11-30T07:19:20.389Z,17.10
2022-11-30T07:24:41.831Z,19.90
2022-11-30T07:29:44.734Z,19.50
2022-11-30T07:34:47.775Z,16.90
2022-11-30T07:39:50.850Z,20.80
2022-11-30T07:44:58.385Z,24.30
2022-11-30T07:50:02.723Z,18.60
2022-11-30T07:55:06.537Z,22.90
2022-11-30T08:00:10.229Z,22.70
2022-11-30T08:05:13.238Z,21.00
2022-11-30T08:10:16.270Z,22.40
2022-11-30T08:15:20.612Z,18.30
2022-11-30T08:20:24.125Z,16.80
2022-11-30T08:25:27.129Z,14.90
2022-11-30T08:30:32.805Z,13.00
2022-11-30T08:35:35.909Z,21.40
2022-11-30T08:40:38.645Z,18.50
2022-11-30T08:45:41.501Z,21.50
2022-11-30T08:50:44.330Z,19.20
2022-11-30T08:56:01.726Z,17.70
2022-11-30T09:01:21.200Z,16.80
2022-11-30T09:06:30.221Z,25.80
2022-11-30T09:11:34.045Z,13.40
2022-11-30T09:16:36.826Z,22.70
2022-11-30T09:21:39.630Z,25.40
2022-11-30T09:26:42.760Z,11.40
2022-11-30T09:31:45.511Z,16.90
2022-11-30T09:36:48.261Z,13.60
2022-11-30T09:42:09.910Z,16.20
2022-11-30T09:47:32.288Z,14.10
2022-11-30T09:52:39.648Z,20.40
2022-11-30T09:57:45.225Z,13.00
2022-11-30T10:02:53.344Z,24.30
2022-11-30T10:08:28.784Z,22.50
2022-11-30T10:13:59.906Z,19.20
2022-11-30T10:19:22.237Z,21.10
2022-11-30T10:24:49.821Z,17.80
2022-11-30T10:29:55.558Z,12.00
2022-11-30T10:35:04.431Z,19.20
2022-11-30T10:40:19.018Z,20.00
2022-11-30T10:45:23.634Z,16.00
2022-11-30T10:50:29.323Z,20.50
2022-11-30T10:56:03.768Z,15.20
2022-11-30T11:01:31.345Z,18.90
2022-11-30T11:06:35.139Z,21.30
2022-11-30T11:11:39.568Z,12.30
2022-11-30T11:17:21.909Z,17.50
2022-11-30T11:22:27.419Z,18.10
2022-11-30T11:27:33.084Z,21.50
2022-11-30T11:32:36.187Z,10.70
2022-11-30T11:37:41.711Z,12.90
2022-11-30T11:42:53.035Z,14.70
2022-11-30T11:48:01.261Z,30.90
2022-11-30T11:53:10.398Z,19.80
2022-11-30T11:58:20.117Z,13.80
2022-11-30T12:03:37.136Z,10.80
2022-11-30T12:08:49.051Z,19.00
2022-11-30T12:13:53.796Z,20.40
2022-11-30T12:19:21.185Z,23.00
2022-11-30T12:24:42.430Z,20.70
2022-11-30T12:30:01.389Z,19.00
2022-11-30T12:35:45.321Z,19.40
2022-11-30T12:41:29.736Z,18.70
2022-11-30T12:46:41.828Z,15.90
2022-11-30T12:52:20.343Z,16.60
2022-11-30T12:57:48.798Z,20.10
2022-11-30T13:03:01.017Z,12.70
2022-11-30T13:08:35.973Z,19.40
2022-11-30T13:13:46.763Z,15.90
2022-11-30T13:18:52.749Z,20.70
2022-11-30T13:24:22.697Z,22.60
2022-11-30T13:30:04.290Z,19.00
2022-11-30T13:35:29.155Z,20.60
2022-11-30T13:40:32.702Z,26.60
2022-11-30T13:45:36.548Z,29.40
2022-11-30T13:50:40.398Z,23.20
2022-11-30T13:55:43.081Z,15.30
2022-11-30T14:01:08.806Z,16.70
2022-11-30T14:06:39.782Z,24.10
2022-11-30T14:11:44.793Z,28.70
2022-11-30T14:16:47.868Z,20.10
2022-11-30T14:21:50.952Z,21.60
2022-11-30T14:26:54.595Z,18.30
2022-11-30T14:32:08.231Z,26.00
2022-11-30T14:37:14.112Z,22.40
2022-11-30T14:42:23.483Z,18.80
2022-11-30T14:47:31.180Z,17.10
2022-11-30T14:53:10.944Z,20.80
2022-11-30T14:58:33.289Z,15.90
2022-11-30T15:03:40.628Z,36.00
2022-11-30T15:08:51.946Z,25.90
2022-11-30T15:13:57.625Z,22.20
2022-11-30T15:19:15.847Z,27.10
2022-11-30T15:24:19.578Z,18.40
2022-11-30T15:29:31.386Z,33.40
2022-11-30T15:34:45.513Z,22.90
2022-11-30T15:39:52.041Z,27.90
2022-11-30T15:45:10.818Z,24.00
2022-11-30T15:50:29.337Z,34.60
2022-11-30T15:55:53.915Z,42.20
2022-11-30T16:01:05.800Z,23.40
2022-11-30T16:06:19.694Z,20.90
2022-11-30T16:11:22.759Z,25.00
2022-11-30T16:16:31.943Z,24.60
2022-11-30T16:21:34.982Z,20.30
2022-11-30T16:26:53.112Z,20.70
2022-11-30T16:31:55.917Z,23.70
2022-11-30T16:36:58.994Z,24.50
2022-11-30T16:42:01.816Z,20.50
2022-11-30T16:47:04.722Z,23.10
2022-11-30T16:52:14.813Z,21.10
2022-11-30T16:57:17.589Z,25.60
2022-11-30T17:02:23.100Z,30.00
2022-11-30T17:07:26.089Z,27.10
2022-11-30T17:12:28.854Z,19.10
2022-11-30T17:17:31.668Z,21.00
2022-11-30T17:22:37.644Z,16.00
2022-11-30T17:27:40.435Z,22.30
2022-11-30T17:32:43.559Z,25.90
2022-11-30T17:37:46.565Z,16.20
2022-11-30T17:42:49.472Z,26.40
2022-11-30T17:47:52.808Z,19.10
2022-11-30T17:52:55.586Z,22.50
2022-11-30T17:57:58.600Z,20.80
2022-11-30T18:03:02.016Z,20.60
2022-11-30T18:08:05.055Z,13.70
2022-11-30T18:13:07.881Z,16.80
2022-11-30T18:18:10.613Z,13.50
2022-11-30T18:23:13.416Z,14.50
2022-11-30T18:28:16.210Z,18.10
2022-11-30T18:33:19.319Z,11.40
2022-11-30T18:38:22.046Z,6.60
2022-11-30T18:43:24.854Z,6.60
2022-11-30T18:48:27.565Z,8.90
2022-11-30T18:53:30.429Z,6.10
2022-11-30T18:58:33.230Z,8.20
2022-11-30T19:03:37.203Z,8.50
2022-11-30T19:08:41.875Z,7.40
2022-11-30T19:13:46.425Z,7.50
2022-11-30T19:18:50.309Z,6.40
2022-11-30T19:23:54.508Z,12.90
2022-11-30T19:28:58.873Z,14.90
2022-11-30T19:34:07.824Z,11.40
2022-11-30T19:39:16.582Z,9.50
2022-11-30T19:44:20.725Z,11.30
2022-11-30T19:49:24.878Z,9.30
2022-11-30T19:54:28.881Z,14.00
2022-11-30T19:59:32.816Z,11.40
2022-11-30T20:04:37.138Z,10.90
2022-11-30T20:09:41.166Z,9.30
2022-11-30T20:14:45.288Z,6.80
2022-11-30T20:19:48.374Z,11.80
2022-11-30T20:24:52.208Z,9.50
2022-11-30T20:29:56.449Z,10.10
2022-11-30T20:34:59.291Z,10.10
2022-11-30T20:40:02.546Z,9.10
2022-11-30T20:45:06.215Z,7.90
2022-11-30T20:50:10.169Z,12.00
2022-11-30T20:55:13.116Z,11.50
2022-11-30T21:00:17.668Z,11.00
2022-11-30T21:05:20.779Z,6.40
2022-11-30T21:10:23.523Z,9.90
2022-11-30T21:15:26.379Z,6.00
2022-11-30T21:20:29.259Z,5.90
2022-11-30T21:25:32.058Z,7.70
2022-11-30T21:30:34.785Z,9.10
2022-11-30T21:35:38.701Z,8.00
2022-11-30T21:40:41.594Z,10.00
2022-11-30T21:45:44.384Z,8.30
2022-11-30T21:50:47.097Z,9.10
2022-11-30T21:55:55.455Z,6.50
2022-11-30T22:01:01.550Z,8.90
2022-11-30T22:06:07.180Z,11.60
2022-11-30T22:11:15.455Z,9.00
2022-11-30T22:16:18.292Z,9.80
2022-11-30T22:21:26.927Z,10.20
2022-11-30T22:26:35.702Z,9.00
2022-11-30T22:31:42.822Z,7.20
2022-11-30T22:36:47.108Z,6.80
2022-11-30T22:41:55.859Z,6.40
2022-11-30T22:46:59.973Z,7.80
2022-11-30T22:52:02.800Z,7.60
2022-11-30T22:57:05.708Z,7.90
2022-11-30T23:02:08.506Z,5.40
2022-11-30T23:07:11.296Z,9.80
2022-11-30T23:12:29.975Z,7.30
2022-11-30T23:17:37.706Z,8.80
2022-11-30T23:22:40.606Z,7.90
2022-11-30T23:27:43.630Z,6.80
2022-11-30T23:32:46.807Z,6.90
2022-11-30T23:37:50.543Z,7.50
2022-11-30T23:42:53.857Z,6.90
2022-11-30T23:47:56.577Z,8.80
2022-11-30T23:52:59.360Z,9.50
2022-11-30T23:58:02.166Z,7.30
